Time;durP1;ratioP1;P1;durP2;ratioP2;P2;SDS_P1;SDS_P2;PMS_P1;PMS_P2;Temp;Humidity;BMP_temperature;BMP_pressure;BME280_temperature;BME280_humidity;BME280_pressure;Samples;Min_cycle;Max_cycle;Signal;HPM_P1;HPM_P2
2022/03/10 00:00:07;;;;;;;27.40;13.07;;;;;;;1.91;51.82;100532.06;4407377;32;34181;-64
2022/03/10 00:02:41;;;;;;;22.10;10.43;;;;;;;2.22;50.95;100540.88;4411073;32;33747;-65
2022/03/10 00:05:15;;;;;;;16.73;8.20;;;;;;;1.96;51.30;100535.97;4408336;32;33728;-65
2022/03/10 00:07:42;;;;;;;20.10;9.45;;;;;;;1.47;52.03;100547.69;4406840;32;33654;-64
2022/03/10 00:10:10;;;;;;;22.65;9.13;;;;;;;1.43;52.09;100549.81;4394725;32;33052;-65
2022/03/10 00:12:51;;;;;;;19.75;8.85;;;;;;;1.27;52.83;100547.50;4408446;32;33035;-64
2022/03/10 00:15:22;;;;;;;19.65;9.05;;;;;;;1.68;51.80;100550.41;4407439;32;34720;-64
2022/03/10 00:17:49;;;;;;;20.77;8.77;;;;;;;1.53;51.98;100555.03;4408103;32;33830;-64
2022/03/10 00:20:17;;;;;;;23.65;11.30;;;;;;;1.73;51.33;100559.41;4408044;32;33310;-64
2022/03/10 00:22:53;;;;;;;22.70;11.60;;;;;;;1.63;52.32;100552.56;4408895;32;34688;-64
2022/03/10 00:25:21;;;;;;;26.10;11.40;;;;;;;1.35;53.65;100555.13;4396091;32;33614;-65
2022/03/10 00:27:50;;;;;;;23.23;11.45;;;;;;;1.09;54.63;100562.00;4407522;32;34544;-64
2022/03/10 00:30:18;;;;;;;22.95;11.27;;;;;;;1.49;53.63;100565.72;4408099;32;33409;-64
2022/03/10 00:32:51;;;;;;;29.50;12.90;;;;;;;1.45;53.67;100563.63;4407474;32;33660;-65
2022/03/10 00:35:21;;;;;;;22.02;11.00;;;;;;;2.08;53.10;100572.84;4402061;32;34773;-64
2022/03/10 00:37:56;;;;;;;21.42;10.38;;;;;;;3.20;50.18;100576.72;4406944;32;33967;-64
2022/03/10 00:40:25;;;;;;;22.15;10.38;;;;;;;3.05;49.34;100580.50;4403225;32;33352;-65
2022/03/10 00:42:53;;;;;;;19.73;10.75;;;;;;;3.15;49.02;100585.69;4394166;32;34514;-65
2022/03/10 00:45:25;;;;;;;24.30;10.98;;;;;;;2.36;51.09;100590.69;4394664;32;32935;-65
2022/03/10 00:47:54;;;;;;;20.70;11.07;;;;;;;2.45;50.81;100591.47;4390617;32;33953;-64
2022/03/10 00:50:23;;;;;;;21.67;11.00;;;;;;;2.77;50.19;100596.00;4404672;32;33473;-64
2022/03/10 00:52:52;;;;;;;20.95;10.27;;;;;;;2.90;49.95;100586.09;4406422;32;33047;-64
2022/03/10 00:55:20;;;;;;;28.05;9.95;;;;;;;3.07;48.99;100602.00;4406174;32;35279;-64
2022/03/10 00:57:49;;;;;;;22.77;10.75;;;;;;;3.04;48.67;100602.66;4405801;32;33936;-65
2022/03/10 01:00:16;;;;;;;22.50;10.38;;;;;;;2.93;49.53;100609.38;4405314;32;33601;-64
2022/03/10 01:02:44;;;;;;;20.42;10.32;;;;;;;2.93;49.36;100614.50;4405203;32;33494;-65
2022/03/10 01:05:12;;;;;;;18.98;9.70;;;;;;;3.12;49.12;100621.25;4404466;32;33731;-65
2022/03/10 01:07:41;;;;;;;18.75;9.45;;;;;;;3.56;48.01;100626.75;4407846;32;33643;-65
2022/03/10 01:10:13;;;;;;;26.00;10.75;;;;;;;3.12;48.67;100631.47;4407817;32;32903;-64
2022/03/10 01:12:42;;;;;;;22.48;11.02;;;;;;;2.02;52.06;100631.06;4407611;32;33763;-65
2022/03/10 01:15:18;;;;;;;19.50;10.13;;;;;;;1.16;55.35;100636.72;4407609;32;34028;-65
2022/03/10 01:17:46;;;;;;;23.50;10.90;;;;;;;0.83;56.64;100644.59;4408189;32;34058;-64
2022/03/10 01:20:17;;;;;;;24.17;11.88;;;;;;;0.61;57.93;100650.91;4393472;32;32530;-65
2022/03/10 01:22:46;;;;;;;22.67;11.55;;;;;;;0.95;57.11;100648.31;4393940;32;33752;-64
2022/03/10 01:25:18;;;;;;;21.00;10.57;;;;;;;1.34;56.36;100652.88;4394523;32;34698;-64
2022/03/10 01:27:46;;;;;;;27.85;12.18;;;;;;;1.16;56.82;100640.94;4406645;32;33964;-64
2022/03/10 01:30:13;;;;;;;27.35;12.02;;;;;;;1.35;56.43;100636.81;4401627;32;35201;-64
2022/03/10 01:32:42;;;;;;;25.48;12.80;;;;;;;1.30;56.90;100635.47;4393806;32;32415;-65
2022/03/10 01:35:09;;;;;;;26.48;12.70;;;;;;;1.07;57.35;100645.16;4407954;32;34716;-64
2022/03/10 01:37:37;;;;;;;25.52;12.45;;;;;;;1.25;57.04;100644.31;4407848;32;33716;-64
2022/03/10 01:40:07;;;;;;;29.52;14.25;;;;;;;0.90;58.20;100644.41;4408095;32;34086;-64
2022/03/10 01:42:35;;;;;;;24.00;12.70;;;;;;;1.41;56.92;100648.34;4406267;32;34734;-64
2022/03/10 01:45:03;;;;;;;27.13;12.90;;;;;;;1.88;55.12;100654.44;4407220;32;33808;-64
2022/03/10 01:47:31;;;;;;;25.42;12.63;;;;;;;2.22;54.04;100648.22;4393745;32;34247;-64
2022/03/10 01:49:59;;;;;;;25.58;12.50;;;;;;;2.21;53.82;100660.87;4407700;32;34516;-64
2022/03/10 01:52:27;;;;;;;27.42;13.35;;;;;;;1.81;54.82;100658.06;4407152;32;34655;-65
2022/03/10 01:54:56;;;;;;;30.02;14.35;;;;;;;1.47;55.86;100666.78;4406395;32;33866;-65
2022/03/10 01:57:25;;;;;;;30.92;13.70;;;;;;;1.49;55.84;100672.97;4407016;32;34584;-64
2022/03/10 01:59:55;;;;;;;23.80;12.88;;;;;;;1.56;56.23;100668.56;4406952;32;33248;-65
2022/03/10 02:02:23;;;;;;;30.00;13.15;;;;;;;2.52;53.29;100665.44;4406793;32;34509;-65
2022/03/10 02:04:51;;;;;;;27.58;13.32;;;;;;;1.81;54.89;100667.41;4407496;32;33735;-64
2022/03/10 02:10:17;;;;;;;24.17;11.98;;;;;;;1.22;58.20;100672.13;4407132;32;33178;-64
2022/03/10 02:12:49;;;;;;;24.85;10.73;;;;;;;2.87;52.97;100665.13;4406240;32;34563;-64
2022/03/10 02:18:07;;;;;;;22.70;10.75;;;;;;;3.03;51.18;100676.75;4407326;32;33887;-64
2022/03/10 02:20:36;;;;;;;22.58;10.52;;;;;;;2.61;52.17;100682.38;4392357;32;33043;-64
2022/03/10 02:23:04;;;;;;;21.87;10.63;;;;;;;1.89;54.09;100682.69;4407632;32;33831;-65
2022/03/10 02:25:33;;;;;;;24.67;11.60;;;;;;;2.20;53.73;100679.50;4391644;32;32259;-64
2022/03/10 02:28:01;;;;;;;20.45;10.50;;;;;;;2.72;52.18;100686.78;4406702;32;33878;-64
2022/03/10 02:30:30;;;;;;;20.92;10.55;;;;;;;3.37;50.14;100695.97;4406996;32;34096;-64
2022/03/10 02:32:58;;;;;;;22.83;11.85;;;;;;;3.23;49.91;100687.09;4406643;32;34174;-65
2022/03/10 02:35:27;;;;;;;23.30;10.90;;;;;;;1.88;53.05;100701.31;4389351;32;34763;-65
2022/03/10 02:37:56;;;;;;;21.62;10.65;;;;;;;1.04;56.01;100709.50;4405352;32;34806;-65
2022/03/10 02:40:24;;;;;;;20.10;11.48;;;;;;;1.35;55.95;100709.91;4393456;32;34458;-65
2022/03/10 02:42:52;;;;;;;22.55;10.95;;;;;;;2.25;53.49;100708.97;4406512;32;33926;-64
2022/03/10 02:45:22;;;;;;;22.30;11.55;;;;;;;2.29;53.20;100700.81;4407123;32;33926;-65
2022/03/10 02:47:50;;;;;;;23.87;10.52;;;;;;;2.21;53.84;100712.88;4405949;32;33641;-64
2022/03/10 02:50:18;;;;;;;19.80;10.05;;;;;;;2.89;51.96;100709.69;4404774;32;34039;-64
2022/03/10 02:52:46;;;;;;;27.23;11.50;;;;;;;3.42;50.66;100714.28;4404067;32;34737;-64
2022/03/10 02:55:14;;;;;;;23.00;10.48;;;;;;;3.33;50.17;100710.16;4398581;32;33569;-65
2022/03/10 02:57:42;;;;;;;22.25;11.23;;;;;;;2.06;52.92;100712.34;4404674;32;33874;-65
2022/03/10 03:00:09;;;;;;;23.20;10.90;;;;;;;1.30;56.08;100722.25;4393949;32;33714;-64
2022/03/10 03:02:38;;;;;;;24.25;10.82;;;;;;;1.36;56.28;100733.03;4406364;32;33591;-64
2022/03/10 03:05:09;;;;;;;19.85;11.05;;;;;;;1.28;56.94;100733.97;4407512;32;34753;-64
2022/03/10 03:07:37;;;;;;;21.12;11.45;;;;;;;2.59;53.13;100729.94;4394674;32;32573;-64
2022/03/10 03:10:05;;;;;;;25.27;11.40;;;;;;;2.46;53.56;100728.81;4408824;32;34192;-64
2022/03/10 03:12:33;;;;;;;23.77;12.18;;;;;;;1.62;56.20;100737.19;4409035;32;33941;-64
2022/03/10 03:15:01;;;;;;;22.20;11.12;;;;;;;1.56;56.74;100736.59;4409070;32;33961;-64
2022/03/10 03:17:28;;;;;;;23.60;11.95;;;;;;;1.72;56.51;100742.44;4394759;32;33690;-64
2022/03/10 03:19:56;;;;;;;21.85;11.43;;;;;;;1.79;56.51;100750.66;4407723;32;34477;-64
2022/03/10 03:22:23;;;;;;;26.15;12.35;;;;;;;1.57;57.26;100746.06;4408813;32;33797;-64
2022/03/10 03:24:51;;;;;;;22.85;11.68;;;;;;;1.62;57.79;100747.38;4408158;32;33371;-64
2022/03/10 03:27:18;;;;;;;22.45;11.40;;;;;;;1.47;58.33;100745.91;4408141;32;34621;-64
2022/03/10 03:29:48;;;;;;;25.25;12.00;;;;;;;2.59;55.36;100740.16;4407850;32;33814;-64
2022/03/10 03:32:15;;;;;;;23.02;12.05;;;;;;;3.46;52.77;100745.44;4408369;32;34587;-64
2022/03/10 03:34:43;;;;;;;20.17;11.07;;;;;;;3.50;51.84;100754.31;4407995;32;32528;-64
2022/03/10 03:37:11;;;;;;;26.05;11.27;;;;;;;3.45;52.02;100755.56;4408010;32;34451;-64
2022/03/10 03:39:38;;;;;;;23.77;10.98;;;;;;;2.97;53.12;100763.22;4408037;32;33607;-64
2022/03/10 03:42:06;;;;;;;22.65;11.02;;;;;;;2.02;56.08;100771.59;4408097;32;33646;-64
2022/03/10 03:44:34;;;;;;;24.77;11.12;;;;;;;2.14;56.01;100787.19;4408435;32;33772;-64
2022/03/10 03:47:01;;;;;;;25.30;11.57;;;;;;;2.12;56.20;100789.59;4408945;32;33643;-64
2022/03/10 03:49:29;;;;;;;24.02;11.27;;;;;;;1.30;59.26;100783.50;4408077;32;34208;-64
2022/03/10 03:51:56;;;;;;;23.50;11.23;;;;;;;1.48;59.15;100788.59;4406158;32;33495;-64
2022/03/10 03:54:24;;;;;;;21.25;11.20;;;;;;;1.87;58.33;100794.03;4408006;32;33885;-64
2022/03/10 03:56:52;;;;;;;25.55;11.52;;;;;;;1.64;59.54;100801.19;4408535;32;34077;-64
2022/03/10 03:59:20;;;;;;;25.00;11.93;;;;;;;1.62;59.45;100806.13;4393450;32;33459;-64
2022/03/10 04:01:47;;;;;;;24.98;12.10;;;;;;;1.11;61.74;100810.53;4407893;32;33899;-64
2022/03/10 04:04:16;;;;;;;22.58;12.35;;;;;;;0.92;62.73;100813.81;4406953;32;33545;-64
2022/03/10 04:06:44;;;;;;;26.60;12.25;;;;;;;0.86;63.27;100817.44;4406862;32;34337;-64
2022/03/10 04:09:14;;;;;;;27.33;13.07;;;;;;;1.12;62.95;100812.31;4388792;32;32543;-64
2022/03/10 04:11:42;;;;;;;25.23;12.85;;;;;;;0.93;63.78;100825.84;4406992;32;33726;-64
2022/03/10 04:14:11;;;;;;;30.83;13.88;;;;;;;1.11;63.43;100815.66;4407370;32;34621;-64
2022/03/10 04:16:39;;;;;;;27.98;13.93;;;;;;;1.18;63.64;100821.50;4389107;32;32687;-64
2022/03/10 04:19:07;;;;;;;31.87;14.30;;;;;;;2.01;61.11;100831.16;4408242;32;33299;-64
2022/03/10 04:21:34;;;;;;;26.35;13.13;;;;;;;2.12;60.63;100830.50;4406752;32;33963;-64
2022/03/10 04:24:02;;;;;;;32.25;15.50;;;;;;;2.69;59.25;100832.34;4406919;32;33710;-64
2022/03/10 04:26:30;;;;;;;29.17;15.35;;;;;;;3.33;56.70;100833.09;4407199;32;33933;-64
2022/03/10 04:28:57;;;;;;;31.23;16.02;;;;;;;3.34;56.35;100839.09;4406348;32;33526;-64
2022/03/10 04:31:25;;;;;;;28.62;14.45;;;;;;;2.33;59.77;100840.94;4407676;32;34758;-64
2022/03/10 04:33:53;;;;;;;28.15;14.25;;;;;;;2.71;58.86;100836.84;4407636;32;34016;-64
2022/03/10 04:36:23;;;;;;;30.02;15.05;;;;;;;3.21;57.72;100826.87;4407719;32;33713;-64
2022/03/10 04:38:51;;;;;;;28.55;14.60;;;;;;;3.64;56.74;100835.81;4394504;32;33142;-64
2022/03/10 04:41:18;;;;;;;29.02;13.80;;;;;;;3.88;56.69;100841.31;4394137;32;33831;-64
2022/03/10 04:43:46;;;;;;;26.33;12.75;;;;;;;4.03;56.36;100850.34;4407314;32;34534;-64
2022/03/10 04:46:13;;;;;;;24.33;13.15;;;;;;;4.05;55.93;100853.06;4403596;32;33989;-64
2022/03/10 04:48:42;;;;;;;26.52;13.05;;;;;;;3.89;57.04;100859.41;4408222;32;34094;-63
2022/03/10 04:51:10;;;;;;;29.52;14.55;;;;;;;3.84;57.16;100877.69;4407401;32;34067;-64
2022/03/10 04:53:38;;;;;;;28.95;14.32;;;;;;;2.84;60.17;100879.84;4406871;32;34778;-64
2022/03/10 04:56:05;;;;;;;27.90;14.02;;;;;;;3.64;58.15;100887.06;4407082;32;33868;-64
2022/03/10 04:58:33;;;;;;;26.52;13.38;;;;;;;3.30;59.54;100889.16;4407659;32;33454;-64
2022/03/10 05:01:00;;;;;;;24.75;11.35;;;;;;;3.41;58.94;100876.44;4392254;32;32675;-65
2022/03/10 05:03:33;;;;;;;23.67;11.55;;;;;;;3.37;59.66;100884.59;4406113;32;35824;-64
2022/03/10 05:06:01;;;;;;;23.52;11.90;;;;;;;3.57;58.96;100892.41;4407081;32;33125;-64
2022/03/10 05:08:31;;;;;;;21.90;10.77;;;;;;;3.26;59.43;100894.75;4390566;32;33411;-64
2022/03/10 05:10:59;;;;;;;23.50;9.88;;;;;;;3.40;58.41;100890.91;4405129;32;34168;-65
2022/03/10 05:13:26;;;;;;;16.87;8.52;;;;;;;3.25;57.91;100903.22;4406756;32;33908;-64
2022/03/10 05:15:55;;;;;;;18.67;8.52;;;;;;;3.49;56.10;100899.38;4407805;32;34754;-64
2022/03/10 05:18:23;;;;;;;15.20;7.93;;;;;;;3.26;55.84;100910.09;4407942;32;34169;-64
2022/03/10 05:20:50;;;;;;;16.45;8.13;;;;;;;3.61;54.05;100917.56;4407345;32;34601;-64
2022/03/10 05:23:18;;;;;;;33.40;13.82;;;;;;;4.06;52.06;100913.84;4405411;32;33821;-64
2022/03/10 05:25:45;;;;;;;14.98;7.25;;;;;;;4.50;51.17;100920.28;4406731;32;34108;-65
2022/03/10 05:28:14;;;;;;;74.65;27.17;;;;;;;4.70;50.58;100919.44;4396387;32;33269;-64
2022/03/10 05:30:42;;;;;;;30.17;10.98;;;;;;;4.10;50.22;100921.91;4406556;32;34027;-65
2022/03/10 05:33:11;;;;;;;11.75;5.75;;;;;;;4.07;49.78;100923.31;4407416;32;34516;-64
2022/03/10 05:35:39;;;;;;;11.27;5.10;;;;;;;4.52;47.97;100926.44;4406837;32;33745;-64
2022/03/10 05:38:08;;;;;;;11.00;4.78;;;;;;;4.23;47.87;100923.00;4406552;32;33451;-65
2022/03/10 05:40:35;;;;;;;9.93;4.18;;;;;;;4.39;47.18;100931.28;4407018;32;34412;-64
2022/03/10 05:43:02;;;;;;;8.88;4.55;;;;;;;4.38;46.86;100931.13;4405896;32;33474;-64
2022/03/10 05:45:30;;;;;;;10.10;4.50;;;;;;;4.16;46.73;100926.69;4405738;32;33900;-65
2022/03/10 05:47:58;;;;;;;11.77;4.97;;;;;;;4.20;46.39;100933.00;4407261;32;33267;-65
2022/03/10 05:50:26;;;;;;;10.18;4.22;;;;;;;4.13;46.42;100936.66;4404264;32;33739;-64
2022/03/10 05:52:54;;;;;;;9.23;4.40;;;;;;;4.25;45.81;100936.84;4406001;32;33553;-64
2022/03/10 05:55:23;;;;;;;9.57;4.05;;;;;;;4.32;45.79;100939.19;4407831;32;34098;-64
2022/03/10 05:57:51;;;;;;;10.98;4.85;;;;;;;3.89;46.46;100935.41;4406014;32;33825;-64
2022/03/10 06:00:19;;;;;;;10.45;4.43;;;;;;;4.16;45.94;100930.94;4384925;32;32877;-64
2022/03/10 06:02:48;;;;;;;12.25;4.20;;;;;;;4.52;45.34;100943.53;4407611;32;33719;-64
2022/03/10 06:05:16;;;;;;;9.45;3.87;;;;;;;4.36;45.24;100946.38;4405554;32;33882;-64
2022/03/10 06:07:44;;;;;;;10.82;3.90;;;;;;;4.53;44.90;100955.56;4406923;32;33856;-64
2022/03/10 06:10:11;;;;;;;10.05;4.22;;;;;;;4.36;45.70;100966.91;4404351;32;32846;-65
2022/03/10 06:12:39;;;;;;;9.75;4.45;;;;;;;3.97;46.18;100954.03;4406368;32;32777;-64
2022/03/10 06:15:08;;;;;;;10.35;4.53;;;;;;;3.78;46.36;100966.84;4404977;32;34548;-65
2022/03/10 06:17:36;;;;;;;8.73;4.05;;;;;;;3.99;46.19;100973.91;4405371;32;33133;-64
2022/03/10 06:20:05;;;;;;;8.95;4.05;;;;;;;3.60;46.81;100979.78;4405873;32;33658;-65
2022/03/10 06:22:35;;;;;;;11.20;4.55;;;;;;;3.91;46.60;100985.13;4405974;32;33419;-65
2022/03/10 06:25:04;;;;;;;9.80;4.57;;;;;;;3.82;46.63;100982.63;4406820;32;33708;-65
2022/03/10 06:27:31;;;;;;;26.70;13.05;;;;;;;3.95;46.10;100987.22;4393413;32;33083;-64
2022/03/10 06:29:59;;;;;;;48.67;24.77;;;;;;;3.86;46.46;100986.37;4406516;32;34345;-65
2022/03/10 06:32:26;;;;;;;20.83;10.68;;;;;;;3.57;47.10;100992.31;4405399;32;34781;-65
2022/03/10 06:34:56;;;;;;;19.75;10.40;;;;;;;3.60;47.56;100992.59;4405978;32;33894;-66
2022/03/10 06:37:26;;;;;;;17.42;7.37;;;;;;;3.54;48.70;100997.19;4409085;32;33503;-65
2022/03/10 06:39:54;;;;;;;12.35;5.87;;;;;;;3.63;48.69;100999.66;4395713;32;34030;-65
2022/03/10 06:42:22;;;;;;;15.85;7.05;;;;;;;3.48;48.68;101006.87;4408611;32;34529;-64
2022/03/10 06:44:49;;;;;;;19.12;7.50;;;;;;;3.51;48.86;101018.28;4404630;32;33764;-65
2022/03/10 06:47:17;;;;;;;19.75;7.15;;;;;;;3.82;48.45;101020.19;4407378;32;33649;-66
2022/03/10 06:49:44;;;;;;;20.08;8.48;;;;;;;3.88;48.01;101015.63;4408635;32;34538;-66
2022/03/10 06:52:12;;;;;;;28.10;11.20;;;;;;;4.17;47.34;101025.03;4407196;32;32888;-65
2022/03/10 06:54:40;;;;;;;29.42;13.07;;;;;;;4.64;45.54;101021.56;4407238;32;33874;-64
2022/03/10 06:57:08;;;;;;;18.48;8.50;;;;;;;4.23;45.69;101017.88;4405471;32;33592;-64
2022/03/10 06:59:35;;;;;;;23.83;11.63;;;;;;;4.53;44.99;101023.16;4407852;32;34574;-64
2022/03/10 07:02:03;;;;;;;11.65;6.10;;;;;;;4.62;45.01;101029.91;4406454;32;34044;-65
2022/03/10 07:04:31;;;;;;;14.10;6.78;;;;;;;4.47;45.75;101032.91;4406482;32;33833;-66
2022/03/10 07:06:58;;;;;;;26.00;12.15;;;;;;;4.85;44.77;101043.06;4407938;32;33394;-66
2022/03/10 07:09:26;;;;;;;24.48;12.65;;;;;;;4.86;44.75;101039.72;4406420;32;34000;-65
2022/03/10 07:11:54;;;;;;;20.37;9.90;;;;;;;4.72;44.86;101050.47;4412132;32;34439;-65
2022/03/10 07:14:22;;;;;;;15.13;5.93;;;;;;;4.71;45.12;101043.53;4409195;32;33659;-67
2022/03/10 07:16:52;;;;;;;18.35;9.32;;;;;;;4.93;44.34;101052.34;4407642;32;33359;-66
2022/03/10 07:19:20;;;;;;;17.40;7.60;;;;;;;4.93;44.22;101056.59;4408397;32;34543;-66
2022/03/10 07:21:48;;;;;;;12.35;5.78;;;;;;;4.47;45.05;101048.28;4410679;32;33867;-64
2022/03/10 07:24:16;;;;;;;13.45;5.82;;;;;;;4.20;45.55;101059.56;4408395;32;33770;-66
2022/03/10 07:26:44;;;;;;;12.23;5.90;;;;;;;4.50;44.97;101060.47;4403229;32;33474;-66
2022/03/10 07:29:11;;;;;;;11.30;5.12;;;;;;;4.07;45.11;101056.63;4403421;32;33850;-65
2022/03/10 07:31:40;;;;;;;13.35;6.25;;;;;;;4.56;44.29;101053.34;4383794;32;33719;-65
2022/03/10 07:34:08;;;;;;;12.77;5.87;;;;;;;4.35;44.75;101062.59;4402253;32;34262;-64
2022/03/10 07:36:35;;;;;;;15.65;7.12;;;;;;;4.70;43.96;101072.53;4409831;32;34391;-66
2022/03/10 07:39:03;;;;;;;9.40;4.87;;;;;;;4.67;44.30;101067.13;4407873;32;34641;-67
2022/03/10 07:41:30;;;;;;;10.32;4.75;;;;;;;4.72;43.81;101068.44;4408657;32;34054;-65
2022/03/10 07:43:59;;;;;;;11.05;5.00;;;;;;;4.46;44.17;101059.34;4407782;32;34559;-64
2022/03/10 07:46:27;;;;;;;11.65;5.22;;;;;;;4.35;44.31;101065.16;4405422;32;33490;-64
2022/03/10 07:48:54;;;;;;;10.10;4.32;;;;;;;4.39;44.23;101064.69;4407795;32;33813;-64
2022/03/10 07:51:21;;;;;;;10.38;5.15;;;;;;;4.87;42.92;101066.31;4406901;32;34720;-65
2022/03/10 07:53:49;;;;;;;9.85;4.97;;;;;;;4.47;43.47;101063.69;4390755;32;34029;-64
2022/03/10 07:56:17;;;;;;;12.18;6.40;;;;;;;4.48;42.72;101060.37;4405297;32;32867;-64
2022/03/10 07:58:44;;;;;;;14.63;5.37;;;;;;;4.68;42.18;101074.06;4407227;32;34091;-64
2022/03/10 08:01:12;;;;;;;12.68;5.00;;;;;;;5.50;40.52;101069.16;4405565;32;33958;-64
2022/03/10 08:03:40;;;;;;;9.55;4.55;;;;;;;5.26;41.08;101063.72;4407782;32;34749;-66
2022/03/10 08:06:08;;;;;;;11.27;5.00;;;;;;;5.97;39.78;101059.47;4397814;32;33663;-64
2022/03/10 08:08:35;;;;;;;10.82;5.03;;;;;;;5.80;40.68;101062.25;4397559;32;33734;-64
2022/03/10 08:11:05;;;;;;;10.77;5.20;;;;;;;5.29;40.67;101066.59;4407361;32;33993;-64
2022/03/10 08:13:32;;;;;;;10.80;5.10;;;;;;;5.43;40.32;101066.88;4408868;32;34165;-65
2022/03/10 08:16:00;;;;;;;15.32;5.40;;;;;;;5.44;40.68;101073.78;4407804;32;34020;-65
2022/03/10 08:18:29;;;;;;;10.88;4.62;;;;;;;5.55;39.92;101067.91;4405927;32;33758;-65
2022/03/10 08:20:58;;;;;;;10.52;5.15;;;;;;;4.92;41.49;101076.22;4406962;32;32493;-64
2022/03/10 08:23:27;;;;;;;11.80;4.57;;;;;;;5.03;40.65;101073.69;4407273;32;34200;-64
2022/03/10 08:25:55;;;;;;;11.63;5.05;;;;;;;5.22;40.11;101076.19;4406496;32;33372;-64
2022/03/10 08:28:25;;;;;;;10.77;4.85;;;;;;;5.12;39.79;101070.25;4406797;32;33976;-63
2022/03/10 08:30:53;;;;;;;10.13;5.37;;;;;;;5.38;39.51;101080.97;4407130;32;34711;-64
2022/03/10 08:33:21;;;;;;;10.55;5.35;;;;;;;5.60;39.22;101071.78;4393786;32;32534;-65
2022/03/10 08:35:48;;;;;;;9.25;4.57;;;;;;;5.64;38.79;101068.69;4406700;32;34166;-64
2022/03/10 08:38:16;;;;;;;10.15;4.70;;;;;;;5.33;39.44;101070.28;4407247;32;33886;-65
2022/03/10 08:40:44;;;;;;;14.00;4.72;;;;;;;5.46;39.60;101073.12;4407110;32;32509;-65
2022/03/10 08:43:12;;;;;;;12.02;5.05;;;;;;;5.36;39.27;101069.66;4407293;32;33910;-64
2022/03/10 08:45:40;;;;;;;9.57;4.43;;;;;;;5.31;38.79;101077.87;4405559;32;34134;-66
2022/03/10 08:48:08;;;;;;;9.15;4.32;;;;;;;5.66;38.16;101069.72;4410815;32;34634;-65
2022/03/10 08:50:36;;;;;;;9.48;4.70;;;;;;;6.18;37.14;101054.28;4407560;32;33953;-64
2022/03/10 08:53:03;;;;;;;9.57;4.87;;;;;;;6.29;36.96;101059.53;4397100;32;33937;-65
2022/03/10 08:55:31;;;;;;;10.98;4.25;;;;;;;6.18;37.17;101059.41;4405639;32;34036;-68
2022/03/10 08:58:00;;;;;;;11.20;5.30;;;;;;;6.47;36.43;101065.28;4404311;32;33656;-65
2022/03/10 09:00:27;;;;;;;8.10;3.95;;;;;;;6.69;35.82;101064.44;4406725;32;33934;-65
2022/03/10 09:02:57;;;;;;;8.45;4.60;;;;;;;6.88;35.27;101065.13;4407724;32;33945;-65
2022/03/10 09:05:26;;;;;;;10.00;4.90;;;;;;;6.28;35.64;101072.28;4406738;32;33572;-65
2022/03/10 09:07:54;;;;;;;9.95;3.95;;;;;;;6.15;35.25;101074.63;4404969;32;33679;-65
2022/03/10 09:10:21;;;;;;;10.57;4.65;;;;;;;6.66;34.36;101071.91;4406313;32;33879;-67
2022/03/10 09:12:49;;;;;;;9.00;4.03;;;;;;;7.32;33.04;101073.66;4405609;32;34253;-64
2022/03/10 09:15:17;;;;;;;18.27;8.40;;;;;;;7.17;31.49;101068.22;4405647;32;34354;-66
2022/03/10 09:17:45;;;;;;;7.25;3.30;;;;;;;7.11;31.60;101067.72;4406508;32;34500;-65
2022/03/10 09:20:16;;;;;;;8.40;4.32;;;;;;;7.34;30.65;101082.41;4404500;32;34574;-67
2022/03/10 09:22:43;;;;;;;8.45;3.50;;;;;;;7.45;29.37;101067.00;4394428;32;34160;-67
2022/03/10 09:25:12;;;;;;;12.85;6.00;;;;;;;8.02;28.24;101079.09;4392759;32;33326;-66
2022/03/10 09:27:40;;;;;;;11.20;5.07;;;;;;;7.58;29.48;101079.16;4406745;32;32274;-65
2022/03/10 09:30:11;;;;;;;11.02;4.60;;;;;;;7.68;29.33;101086.81;4404502;32;34440;-65
2022/03/10 09:32:40;;;;;;;7.75;4.05;;;;;;;7.84;28.54;101080.25;4384347;32;33670;-65
2022/03/10 09:35:10;;;;;;;7.72;4.18;;;;;;;8.57;27.42;101077.13;4403139;32;34086;-67
2022/03/10 09:37:37;;;;;;;10.15;5.53;;;;;;;9.02;27.62;101075.19;4407273;32;34422;-65
2022/03/10 09:40:07;;;;;;;10.90;5.32;;;;;;;8.67;28.07;101089.03;4406706;32;33760;-66
2022/03/10 09:42:36;;;;;;;8.57;3.97;;;;;;;8.08;28.29;101084.69;4407709;32;33599;-64
2022/03/10 09:45:09;;;;;;;9.02;3.80;;;;;;;8.17;28.15;101086.16;4407908;32;33102;-65
2022/03/10 09:47:38;;;;;;;8.93;4.00;;;;;;;9.01;26.94;101076.88;4408182;32;34644;-65
2022/03/10 09:50:11;;;;;;;8.13;4.05;;;;;;;8.35;27.18;101084.06;4387728;32;33803;-67
2022/03/10 09:52:40;;;;;;;7.20;3.37;;;;;;;8.74;26.52;101083.53;4406826;32;33986;-67
2022/03/10 09:55:08;;;;;;;8.23;4.30;;;;;;;8.91;26.60;101083.88;4407626;32;33554;-67
2022/03/10 09:57:42;;;;;;;8.98;4.10;;;;;;;9.04;26.01;101089.12;4386959;32;34759;-66
2022/03/10 10:00:11;;;;;;;8.40;4.25;;;;;;;9.05;25.92;101083.16;4407361;32;33363;-66
2022/03/10 10:02:42;;;;;;;7.50;4.10;;;;;;;8.82;26.76;101077.22;4407520;32;34147;-66
2022/03/10 10:05:23;;;;;;;8.63;4.37;;;;;;;8.72;26.40;101082.53;4405018;32;33788;-65
2022/03/10 10:08:04;;;;;;;12.02;4.50;;;;;;;9.35;25.52;101088.69;4407790;32;33596;-67
2022/03/10 10:10:34;;;;;;;10.68;4.05;;;;;;;9.88;24.31;101093.22;4409606;32;34337;-66
2022/03/10 10:13:43;;;;;;;9.23;4.25;;;;;;;10.66;24.22;101088.06;4409526;32;34661;-65
2022/03/10 10:16:14;;;;;;;7.95;3.72;;;;;;;10.36;24.06;101087.87;4363669;32;32436;-66
2022/03/10 10:18:42;;;;;;;7.35;3.70;;;;;;;10.33;23.00;101094.53;4393021;32;32419;-67
2022/03/10 10:21:19;;;;;;;7.68;3.87;;;;;;;10.68;22.79;101094.28;4408178;32;33801;-67
2022/03/10 10:23:49;;;;;;;8.68;4.10;;;;;;;10.69;22.60;101090.87;4408335;32;34288;-66
2022/03/10 10:26:18;;;;;;;5.82;3.30;;;;;;;9.87;23.06;101105.28;4408147;32;33714;-67
2022/03/10 10:28:49;;;;;;;10.65;4.60;;;;;;;10.43;22.48;101102.16;4409527;32;34701;-67
2022/03/10 10:31:24;;;;;;;7.70;3.30;;;;;;;10.63;22.63;101095.66;4409408;32;33929;-65
2022/03/10 10:34:01;;;;;;;7.40;3.30;;;;;;;10.61;22.83;101097.25;4409598;32;34670;-66
2022/03/10 10:36:33;;;;;;;6.82;3.60;;;;;;;11.28;22.13;101111.06;4409724;32;33196;-67
2022/03/10 10:39:11;;;;;;;6.78;3.20;;;;;;;11.16;21.54;101106.00;4409944;32;33889;-66
2022/03/10 10:41:40;;;;;;;7.35;3.58;;;;;;;11.06;21.34;101106.19;4409861;32;33889;-68
2022/03/10 10:44:10;;;;;;;6.53;2.90;;;;;;;10.93;21.34;101101.03;4396062;32;33625;-66
2022/03/10 10:46:44;;;;;;;7.87;3.37;;;;;;;10.95;21.29;101099.44;4409360;32;34410;-66
2022/03/10 10:49:17;;;;;;;10.05;5.50;;;;;;;11.13;21.25;101090.22;4409604;32;33871;-67
2022/03/10 10:51:46;;;;;;;9.63;4.25;;;;;;;10.54;21.84;101095.94;4396026;32;33738;-65
2022/03/10 10:54:20;;;;;;;7.03;3.28;;;;;;;10.55;21.90;101096.88;4395947;32;33966;-67
2022/03/10 10:56:52;;;;;;;6.90;3.10;;;;;;;11.00;21.18;101103.22;4409698;32;33267;-68
2022/03/10 10:59:30;;;;;;;5.75;3.05;;;;;;;11.10;20.17;101100.41;4409447;32;34831;-64
2022/03/10 11:02:12;;;;;;;11.27;7.10;;;;;;;11.88;19.76;101095.66;4409428;32;33758;-68
2022/03/10 11:04:47;;;;;;;6.90;2.78;;;;;;;12.04;19.92;101094.94;4409538;32;34060;-66
2022/03/10 11:07:19;;;;;;;6.03;3.12;;;;;;;12.15;19.63;101096.47;4395862;32;33950;-64
2022/03/10 11:09:49;;;;;;;7.37;3.33;;;;;;;12.32;19.31;101098.34;4409585;32;34604;-66
2022/03/10 11:12:18;;;;;;;8.82;2.90;;;;;;;12.73;19.23;101081.63;4407783;32;33683;-67
2022/03/10 11:14:47;;;;;;;6.28;3.33;;;;;;;12.54;19.55;101086.59;4409561;32;33839;-67
2022/03/10 11:17:17;;;;;;;7.43;3.83;;;;;;;12.87;19.26;101089.31;4409265;32;33118;-66
2022/03/10 11:19:48;;;;;;;6.97;3.37;;;;;;;12.76;19.48;101089.59;4408575;32;33079;-65
2022/03/10 11:22:37;;;;;;;6.85;3.80;;;;;;;12.86;19.48;101084.91;4396851;32;33825;-65
2022/03/10 11:25:16;;;;;;;8.02;4.15;;;;;;;12.51;20.28;101081.19;4408545;32;34472;-66
2022/03/10 11:27:51;;;;;;;7.20;3.67;;;;;;;12.23;20.56;101083.91;4395952;32;33551;-67
2022/03/10 11:30:24;;;;;;;7.15;3.65;;;;;;;13.55;18.94;101076.59;4383869;32;34387;-65
2022/03/10 11:33:03;;;;;;;7.05;3.60;;;;;;;10.86;21.11;101083.31;4392147;32;34679;-66
2022/03/10 11:35:37;;;;;;;8.18;3.50;;;;;;;11.92;22.17;101082.13;4413465;32;33713;-66